Demarest, New Jersey
Current Conditions -  °F | °C
As of 6:51 PM on Friday 19 Dec 2014 (Local Time) from KTEB Reporting Station
Overcast Overcast  
Wind Chill: 24°   Ceiling: 3500
Heat Index: 33°   Visibility: 10mi
Dew Point: 20°   Wind: 13mph
Humidity: 59%   Direction: 310°NW
Pressure: 30.15"   Gusts: NA
Location:  40.96°N, 73.96°W
Report Text: KTEB 192351Z 31011KT 10SM OVC035 01/M07 A3015 RMK AO2 SLP208 T00061067 10033 20006 53025
Loading
Personal Weather Stations






























Interactive Weather Map New forecast layout! Learn more

10-Day Weather Forecast

Advertisements
Track Severe Weather on mobile